Time;durP1;ratioP1;P1;durP2;ratioP2;P2;SDS_P1;SDS_P2;PMS_P1;PMS_P2;Temp;Humidity;BMP_temperature;BMP_pressure;BME280_temperature;BME280_humidity;BME280_pressure;Samples;Min_cycle;Max_cycle;Signal;HPM_P1;HPM_P2
2022/07/10 00:03:39;;;;;;;0.10;0.10;;;;;;;;;;15350283;19;20011;-67
2022/07/10 00:08:42;;;;;;;0.10;0.10;;;;;;;;;;15347098;19;20094;-66
2022/07/10 00:13:43;;;;;;;0.15;0.15;;;;;;;;;;15349527;19;20014;-65
2022/07/10 00:18:44;;;;;;;0.17;0.17;;;;;;;;;;15348719;19;20017;-65
2022/07/10 00:23:45;;;;;;;0.10;0.10;;;;;;;;;;15340500;19;20018;-65
2022/07/10 00:28:47;;;;;;;0.20;0.20;;;;;;;;;;15348038;19;20227;-65
2022/07/10 00:33:48;;;;;;;0.10;0.10;;;;;;;;;;15344396;19;20019;-67
2022/07/10 00:38:49;;;;;;;0.13;0.13;;;;;;;;;;15352058;19;20022;-65
2022/07/10 00:43:55;;;;;;;0.20;0.20;;;;;;;;;;15344623;19;20011;-66
2022/07/10 00:48:56;;;;;;;0.20;0.20;;;;;;;;;;15341144;19;20002;-66
2022/07/10 00:53:59;;;;;;;0.20;0.20;;;;;;;;;;15346151;19;20026;-66
2022/07/10 00:59:01;;;;;;;0.10;0.10;;;;;;;;;;15345698;19;20064;-65
2022/07/10 01:04:02;;;;;;;0.10;0.10;;;;;;;;;;15346730;19;20010;-66
2022/07/10 01:09:04;;;;;;;0.20;0.20;;;;;;;;;;15341990;19;20011;-66
2022/07/10 01:14:05;;;;;;;0.10;0.10;;;;;;;;;;15345125;19;20070;-66
2022/07/10 01:19:07;;;;;;;0.20;0.20;;;;;;;;;;15344686;19;20054;-66
2022/07/10 01:24:10;;;;;;;0.10;0.10;;;;;;;;;;15338770;19;20223;-65
2022/07/10 01:29:11;;;;;;;0.20;0.20;;;;;;;;;;15340118;19;20011;-65
2022/07/10 01:34:12;;;;;;;0.20;0.20;;;;;;;;;;15342310;19;20011;-65
2022/07/10 01:39:14;;;;;;;0.15;0.15;;;;;;;;;;15342646;19;20021;-67
2022/07/10 01:44:15;;;;;;;0.10;0.10;;;;;;;;;;15342144;19;20203;-66
2022/07/10 01:49:16;;;;;;;0.20;0.20;;;;;;;;;;15339101;19;20033;-66
2022/07/10 01:54:18;;;;;;;0.10;0.10;;;;;;;;;;15341371;19;20034;-66
2022/07/10 01:59:19;;;;;;;0.20;0.20;;;;;;;;;;15340280;19;20014;-66
2022/07/10 02:04:42;;;;;;;0.10;0.10;;;;;;;;;;15340601;19;20011;-66
2022/07/10 02:09:44;;;;;;;0.20;0.20;;;;;;;;;;15336978;19;20013;-66
2022/07/10 02:14:45;;;;;;;0.20;0.20;;;;;;;;;;15339924;19;20037;-66
2022/07/10 02:19:46;;;;;;;0.20;0.20;;;;;;;;;;15337751;19;20033;-67
2022/07/10 02:24:48;;;;;;;0.20;0.20;;;;;;;;;;15338155;19;20014;-66
2022/07/10 02:29:49;;;;;;;0.20;0.20;;;;;;;;;;15335747;19;20015;-66
2022/07/10 02:34:50;;;;;;;0.20;0.20;;;;;;;;;;15336526;19;20010;-67
2022/07/10 02:39:51;;;;;;;0.20;0.20;;;;;;;;;;15336781;19;20108;-67
2022/07/10 02:44:53;;;;;;;0.20;0.20;;;;;;;;;;15336017;19;20010;-66
2022/07/10 02:49:54;;;;;;;0.20;0.20;;;;;;;;;;15333361;19;20021;-66
2022/07/10 02:54:56;;;;;;;0.20;0.20;;;;;;;;;;15335786;19;20026;-66
2022/07/10 02:59:57;;;;;;;0.10;0.10;;;;;;;;;;15334396;19;20015;-67
2022/07/10 03:04:58;;;;;;;0.20;0.20;;;;;;;;;;15335225;19;20219;-67
2022/07/10 03:10:00;;;;;;;0.70;0.70;;;;;;;;;;15333567;19;20014;-66
2022/07/10 03:15:01;;;;;;;0.90;0.90;;;;;;;;;;15334776;19;20207;-66
2022/07/10 03:20:03;;;;;;;1.00;1.00;;;;;;;;;;15338491;19;20142;-65
2022/07/10 03:25:04;;;;;;;0.30;0.30;;;;;;;;;;15333306;19;20017;-67
2022/07/10 03:30:06;;;;;;;0.90;0.90;;;;;;;;;;15343359;19;20018;-65
2022/07/10 03:35:08;;;;;;;0.10;0.10;;;;;;;;;;15348428;19;20002;-65
2022/07/10 03:40:09;;;;;;;0.00;0.00;;;;;;;;;;15351250;19;20015;-66
2022/07/10 03:45:10;;;;;;;0.10;0.10;;;;;;;;;;15355395;19;20018;-66
2022/07/10 03:50:12;;;;;;;0.10;0.10;;;;;;;;;;15344066;19;20030;-66
2022/07/10 03:55:13;;;;;;;0.00;0.00;;;;;;;;;;15347749;19;20025;-66
2022/07/10 04:00:17;;;;;;;;;;;;;;;;;;15356323;19;20041;-66
2022/07/10 04:05:18;;;;;;;0.10;0.10;;;;;;;;;;15355097;19;19927;-66
2022/07/10 04:10:20;;;;;;;0.00;0.00;;;;;;;;;;15349599;19;20030;-66
2022/07/10 04:15:22;;;;;;;0.00;0.00;;;;;;;;;;15353809;19;20239;-66
2022/07/10 04:20:24;;;;;;;0.00;0.00;;;;;;;;;;15352853;19;20019;-65
2022/07/10 04:25:25;;;;;;;0.10;0.10;;;;;;;;;;15353954;19;20202;-65
2022/07/10 04:30:27;;;;;;;0.10;0.10;;;;;;;;;;15348639;19;20018;-65
2022/07/10 04:35:28;;;;;;;0.10;0.10;;;;;;;;;;15352405;19;20010;-65
2022/07/10 04:40:29;;;;;;;0.00;0.00;;;;;;;;;;15350407;19;20119;-66
2022/07/10 04:45:30;;;;;;;0.00;0.00;;;;;;;;;;15350871;19;20010;-66
2022/07/10 04:50:31;;;;;;;0.00;0.00;;;;;;;;;;15346505;19;20219;-66
2022/07/10 04:55:33;;;;;;;0.00;0.00;;;;;;;;;;15350083;19;20045;-66
2022/07/10 05:00:35;;;;;;;0.00;0.00;;;;;;;;;;15348544;19;20015;-66
2022/07/10 05:05:36;;;;;;;0.00;0.00;;;;;;;;;;15351392;19;20199;-66
2022/07/10 05:10:37;;;;;;;0.00;0.00;;;;;;;;;;15334518;19;20001;-67
2022/07/10 05:15:39;;;;;;;0.00;0.00;;;;;;;;;;15338102;19;20022;-67
2022/07/10 05:20:43;;;;;;;0.00;0.00;;;;;;;;;;15347727;19;20225;-67
2022/07/10 05:25:44;;;;;;;0.00;0.00;;;;;;;;;;15350839;19;20010;-66
2022/07/10 05:30:45;;;;;;;0.00;0.00;;;;;;;;;;15345356;19;20015;-66
2022/07/10 05:35:47;;;;;;;0.00;0.00;;;;;;;;;;15344522;19;20009;-66
2022/07/10 05:40:48;;;;;;;0.00;0.00;;;;;;;;;;15343905;19;20103;-66
2022/07/10 05:45:50;;;;;;;0.00;0.00;;;;;;;;;;15344072;19;20017;-66
2022/07/10 05:50:52;;;;;;;0.00;0.00;;;;;;;;;;15341061;19;20011;-68
2022/07/10 05:55:53;;;;;;;0.00;0.00;;;;;;;;;;15346364;19;20018;-67
2022/07/10 06:00:54;;;;;;;0.00;0.00;;;;;;;;;;15346473;19;20015;-66
2022/07/10 06:05:56;;;;;;;0.00;0.00;;;;;;;;;;15344492;19;20258;-66
2022/07/10 06:10:57;;;;;;;0.00;0.00;;;;;;;;;;15339674;19;20030;-67
2022/07/10 06:15:58;;;;;;;0.00;0.00;;;;;;;;;;15345198;19;20018;-65
2022/07/10 06:20:59;;;;;;;0.00;0.00;;;;;;;;;;15343286;19;20139;-67
2022/07/10 06:26:01;;;;;;;0.00;0.00;;;;;;;;;;15341827;19;20138;-68
2022/07/10 06:31:02;;;;;;;0.00;0.00;;;;;;;;;;15341307;19;20010;-68
2022/07/10 06:36:03;;;;;;;0.00;0.00;;;;;;;;;;15342663;19;20025;-69
2022/07/10 06:41:05;;;;;;;0.00;0.00;;;;;;;;;;15340760;19;20286;-67
2022/07/10 06:46:06;;;;;;;0.00;0.00;;;;;;;;;;15341682;19;20006;-67
2022/07/10 06:51:07;;;;;;;0.00;0.00;;;;;;;;;;15340697;19;20131;-68
2022/07/10 06:56:09;;;;;;;0.00;0.00;;;;;;;;;;15343112;19;20067;-67
2022/07/10 07:01:10;;;;;;;0.00;0.00;;;;;;;;;;15334580;19;20014;-67
2022/07/10 07:06:11;;;;;;;0.00;0.00;;;;;;;;;;15342282;19;20066;-67
2022/07/10 07:11:13;;;;;;;0.00;0.00;;;;;;;;;;15335261;19;20073;-71
2022/07/10 07:16:18;;;;;;;0.00;0.00;;;;;;;;;;15339818;19;20070;-67
2022/07/10 07:26:39;;;;;;;0.00;0.00;;;;;;;;;;15338719;19;20022;-69
2022/07/10 07:31:40;;;;;;;0.00;0.00;;;;;;;;;;15340725;19;20002;-68
2022/07/10 07:36:41;;;;;;;0.00;0.00;;;;;;;;;;15339651;19;20023;-67
2022/07/10 07:41:43;;;;;;;0.00;0.00;;;;;;;;;;15333208;19;20033;-71
2022/07/10 07:46:44;;;;;;;0.00;0.00;;;;;;;;;;15340342;19;20231;-68
2022/07/10 07:51:45;;;;;;;0.00;0.00;;;;;;;;;;15338309;19;20011;-71
2022/07/10 07:56:47;;;;;;;0.00;0.00;;;;;;;;;;15331442;19;20006;-70
2022/07/10 08:01:48;;;;;;;0.00;0.00;;;;;;;;;;15338004;19;20238;-69
2022/07/10 08:06:52;;;;;;;0.00;0.00;;;;;;;;;;15339400;19;20060;-70
2022/07/10 08:11:53;;;;;;;0.00;0.00;;;;;;;;;;15337973;19;20018;-69
2022/07/10 08:16:54;;;;;;;0.00;0.00;;;;;;;;;;15346801;19;20112;-68
2022/07/10 08:21:55;;;;;;;0.00;0.00;;;;;;;;;;15349819;19;20010;-68
2022/07/10 08:26:57;;;;;;;0.00;0.00;;;;;;;;;;15354668;19;20015;-67
2022/07/10 08:31:58;;;;;;;0.00;0.00;;;;;;;;;;15351001;19;20006;-68
2022/07/10 08:37:00;;;;;;;0.00;0.00;;;;;;;;;;15350261;19;20010;-68
2022/07/10 08:42:04;;;;;;;0.00;0.00;;;;;;;;;;15354559;19;20062;-70
2022/07/10 08:47:06;;;;;;;0.00;0.00;;;;;;;;;;15351766;19;20014;-70
2022/07/10 08:52:27;;;;;;;0.00;0.00;;;;;;;;;;15347284;19;20031;-68
2022/07/10 08:57:31;;;;;;;0.00;0.00;;;;;;;;;;15349698;19;20249;-68
2022/07/10 09:02:37;;;;;;;0.00;0.00;;;;;;;;;;15344625;19;20066;-68
2022/07/10 09:07:41;;;;;;;0.00;0.00;;;;;;;;;;15344054;19;20010;-68
2022/07/10 09:13:03;;;;;;;0.00;0.00;;;;;;;;;;15352128;19;20010;-68
2022/07/10 09:18:07;;;;;;;0.00;0.00;;;;;;;;;;15345095;19;20014;-67
2022/07/10 09:23:14;;;;;;;0.00;0.00;;;;;;;;;;15347374;19;20228;-69
2022/07/10 09:28:23;;;;;;;0.00;0.00;;;;;;;;;;15344547;19;20014;-67
2022/07/10 09:33:30;;;;;;;0.00;0.00;;;;;;;;;;15350019;19;20018;-67
2022/07/10 09:38:43;;;;;;;0.00;0.00;;;;;;;;;;15345350;19;20014;-67
2022/07/10 09:43:47;;;;;;;;;;;;;;;;;;15346644;19;20014;-67
2022/07/10 09:49:00;;;;;;;0.00;0.00;;;;;;;;;;15344737;19;20127;-67
2022/07/10 09:54:04;;;;;;;0.00;0.00;;;;;;;;;;15346656;19;20010;-67
2022/07/10 09:59:09;;;;;;;0.00;0.00;;;;;;;;;;15343221;19;20022;-67
2022/07/10 10:04:12;;;;;;;0.00;0.00;;;;;;;;;;15345152;19;20021;-66
2022/07/10 10:09:41;;;;;;;0.00;0.00;;;;;;;;;;15342593;19;20018;-67
2022/07/10 10:14:43;;;;;;;0.00;0.00;;;;;;;;;;15345700;19;20059;-67
2022/07/10 10:25:10;;;;;;;0.00;0.00;;;;;;;;;;15341850;19;20026;-65
2022/07/10 10:30:11;;;;;;;0.00;0.00;;;;;;;;;;15338723;19;20033;-67
2022/07/10 10:35:48;;;;;;;0.00;0.00;;;;;;;;;;15342956;19;20014;-67
2022/07/10 10:40:49;;;;;;;0.00;0.00;;;;;;;;;;15335463;19;20010;-67
2022/07/10 10:45:51;;;;;;;0.00;0.00;;;;;;;;;;15337820;19;20033;-68
2022/07/10 10:50:53;;;;;;;0.00;0.00;;;;;;;;;;15342742;19;20231;-67
2022/07/10 10:56:07;;;;;;;0.00;0.00;;;;;;;;;;15337066;19;20014;-67
2022/07/10 11:01:30;;;;;;;0.00;0.00;;;;;;;;;;15334906;19;20234;-68
2022/07/10 11:06:53;;;;;;;0.00;0.00;;;;;;;;;;15338965;19;20018;-67
2022/07/10 11:11:58;;;;;;;0.00;0.00;;;;;;;;;;15341354;19;20264;-69
2022/07/10 11:16:59;;;;;;;0.00;0.00;;;;;;;;;;15343016;19;20026;-67
2022/07/10 11:22:06;;;;;;;0.00;0.00;;;;;;;;;;15339522;19;20145;-67
2022/07/10 11:27:30;;;;;;;0.00;0.00;;;;;;;;;;15338938;19;20134;-66
2022/07/10 11:32:33;;;;;;;0.00;0.00;;;;;;;;;;15333406;19;20014;-66
2022/07/10 11:37:35;;;;;;;0.00;0.00;;;;;;;;;;15337108;19;20003;-66
2022/07/10 11:42:58;;;;;;;0.00;0.00;;;;;;;;;;15341964;19;20230;-71
2022/07/10 11:47:59;;;;;;;0.00;0.00;;;;;;;;;;15337811;19;20021;-66
2022/07/10 11:53:01;;;;;;;0.00;0.00;;;;;;;;;;15349768;19;20018;-67
2022/07/10 11:58:18;;;;;;;0.00;0.00;;;;;;;;;;15354735;19;20015;-67
2022/07/10 12:03:20;;;;;;;0.00;0.00;;;;;;;;;;15359431;19;20007;-67
2022/07/10 12:08:22;;;;;;;0.00;0.00;;;;;;;;;;15359546;19;20014;-68
2022/07/10 12:13:23;;;;;;;0.00;0.00;;;;;;;;;;15351861;19;20010;-68
2022/07/10 12:18:28;;;;;;;0.00;0.00;;;;;;;;;;15355347;19;20149;-67
2022/07/10 12:23:30;;;;;;;0.00;0.00;;;;;;;;;;15354535;19;20015;-67
2022/07/10 12:28:47;;;;;;;0.00;0.00;;;;;;;;;;15355565;19;20015;-68
2022/07/10 12:33:54;;;;;;;0.00;0.00;;;;;;;;;;15349792;19;20002;-67
2022/07/10 12:39:00;;;;;;;0.00;0.00;;;;;;;;;;15352452;19;20033;-68
2022/07/10 12:44:02;;;;;;;0.00;0.00;;;;;;;;;;15356002;19;20145;-68
2022/07/10 12:49:08;;;;;;;;;;;;;;;;;;15353874;19;20014;-66
2022/07/10 12:54:29;;;;;;;0.00;0.00;;;;;;;;;;15350794;19;19919;-67
2022/07/10 12:59:33;;;;;;;0.00;0.00;;;;;;;;;;15351599;19;20014;-67
2022/07/10 13:04:34;;;;;;;0.00;0.00;;;;;;;;;;15354336;19;20235;-66
2022/07/10 13:09:39;;;;;;;0.00;0.00;;;;;;;;;;15352738;19;20019;-68
2022/07/10 13:14:41;;;;;;;0.00;0.00;;;;;;;;;;15349470;19;20015;-68
2022/07/10 13:19:42;;;;;;;0.00;0.00;;;;;;;;;;15346611;19;20034;-68
2022/07/10 13:24:44;;;;;;;0.00;0.00;;;;;;;;;;15351260;19;20007;-69
2022/07/10 13:29:45;;;;;;;0.00;0.00;;;;;;;;;;15351232;19;20013;-65
2022/07/10 13:34:46;;;;;;;0.00;0.00;;;;;;;;;;15351274;19;20015;-67
2022/07/10 13:39:48;;;;;;;0.00;0.00;;;;;;;;;;15348206;19;20014;-68
2022/07/10 13:44:49;;;;;;;0.00;0.00;;;;;;;;;;15350371;19;20243;-68
2022/07/10 13:49:50;;;;;;;0.00;0.00;;;;;;;;;;15352894;19;20007;-68
2022/07/10 13:54:52;;;;;;;0.00;0.00;;;;;;;;;;15348605;19;20066;-69
2022/07/10 13:59:53;;;;;;;0.00;0.00;;;;;;;;;;15346335;19;20010;-68
2022/07/10 14:04:55;;;;;;;0.00;0.00;;;;;;;;;;15349625;19;20219;-67
2022/07/10 14:09:56;;;;;;;0.00;0.00;;;;;;;;;;15349314;19;20014;-67
2022/07/10 14:14:59;;;;;;;0.00;0.00;;;;;;;;;;15346313;19;20245;-69
2022/07/10 14:20:01;;;;;;;0.00;0.00;;;;;;;;;;15348088;19;20014;-67
2022/07/10 14:25:03;;;;;;;0.00;0.00;;;;;;;;;;15349508;19;20263;-67
2022/07/10 14:30:05;;;;;;;0.00;0.00;;;;;;;;;;15345903;19;20009;-68
2022/07/10 14:35:08;;;;;;;0.00;0.00;;;;;;;;;;15347501;19;20226;-68
2022/07/10 14:40:10;;;;;;;0.00;0.00;;;;;;;;;;15351325;19;20237;-71
2022/07/10 14:45:11;;;;;;;0.00;0.00;;;;;;;;;;15346704;19;20202;-67
2022/07/10 14:50:13;;;;;;;0.00;0.00;;;;;;;;;;15344576;19;20119;-68
2022/07/10 14:55:14;;;;;;;0.00;0.00;;;;;;;;;;15347308;19;20003;-71
2022/07/10 15:00:18;;;;;;;0.00;0.00;;;;;;;;;;15348292;19;20021;-70
2022/07/10 15:05:19;;;;;;;0.00;0.00;;;;;;;;;;15345890;19;20104;-69
2022/07/10 15:10:20;;;;;;;0.00;0.00;;;;;;;;;;15348595;19;20015;-69
2022/07/10 15:15:22;;;;;;;0.00;0.00;;;;;;;;;;15347643;19;20011;-69
2022/07/10 15:20:23;;;;;;;0.00;0.00;;;;;;;;;;15336723;19;20225;-68
2022/07/10 15:25:25;;;;;;;0.00;0.00;;;;;;;;;;15359863;19;20007;-68
2022/07/10 15:30:27;;;;;;;0.00;0.00;;;;;;;;;;15360584;19;20017;-68
2022/07/10 15:35:28;;;;;;;0.00;0.00;;;;;;;;;;15358868;19;20014;-69
2022/07/10 15:40:30;;;;;;;0.00;0.00;;;;;;;;;;15355874;19;20018;-70
2022/07/10 15:45:32;;;;;;;0.00;0.00;;;;;;;;;;15361803;19;20093;-67
2022/07/10 15:50:33;;;;;;;0.00;0.00;;;;;;;;;;15359469;19;20011;-67
2022/07/10 15:55:34;;;;;;;0.00;0.00;;;;;;;;;;15353891;19;20026;-68
2022/07/10 16:00:35;;;;;;;0.00;0.00;;;;;;;;;;15356545;19;20010;-68
2022/07/10 16:05:37;;;;;;;0.00;0.00;;;;;;;;;;15359154;19;20006;-69
2022/07/10 16:10:39;;;;;;;0.00;0.00;;;;;;;;;;15358586;19;20014;-68
2022/07/10 16:15:40;;;;;;;0.00;0.00;;;;;;;;;;15360261;19;19999;-69
2022/07/10 16:20:45;;;;;;;0.00;0.00;;;;;;;;;;15353136;19;20086;-69
2022/07/10 16:26:02;;;;;;;0.00;0.00;;;;;;;;;;15353793;19;20013;-69
2022/07/10 16:31:03;;;;;;;0.00;0.00;;;;;;;;;;15354839;19;20002;-67
2022/07/10 16:36:06;;;;;;;0.00;0.00;;;;;;;;;;15348424;19;20011;-68
2022/07/10 16:41:07;;;;;;;0.00;0.00;;;;;;;;;;15354566;19;20011;-67
2022/07/10 16:46:08;;;;;;;0.00;0.00;;;;;;;;;;15359923;19;20006;-68
2022/07/10 16:51:10;;;;;;;0.00;0.00;;;;;;;;;;15354103;19;20231;-69
2022/07/10 16:56:11;;;;;;;0.10;0.10;;;;;;;;;;15354830;19;20011;-69
2022/07/10 17:01:13;;;;;;;0.00;0.00;;;;;;;;;;15359534;19;20013;-69
2022/07/10 17:06:14;;;;;;;0.00;0.00;;;;;;;;;;15351928;19;20138;-69
2022/07/10 17:11:15;;;;;;;0.10;0.10;;;;;;;;;;15357355;19;20014;-67
2022/07/10 17:16:17;;;;;;;0.00;0.00;;;;;;;;;;15356373;19;20022;-67
2022/07/10 17:21:18;;;;;;;0.10;0.10;;;;;;;;;;15346889;19;20014;-69
2022/07/10 17:26:20;;;;;;;0.10;0.10;;;;;;;;;;15354758;19;20017;-67
2022/07/10 17:31:22;;;;;;;0.10;0.10;;;;;;;;;;15350916;19;20018;-68
2022/07/10 17:36:23;;;;;;;0.10;0.10;;;;;;;;;;15348777;19;20021;-68
2022/07/10 17:41:24;;;;;;;0.10;0.10;;;;;;;;;;15350622;19;20019;-68
2022/07/10 17:46:26;;;;;;;0.10;0.10;;;;;;;;;;15359320;19;20018;-68
2022/07/10 17:51:28;;;;;;;0.10;0.10;;;;;;;;;;15350397;19;20022;-68
2022/07/10 17:56:29;;;;;;;0.10;0.10;;;;;;;;;;15353267;19;20025;-68
2022/07/10 18:01:31;;;;;;;0.10;0.10;;;;;;;;;;15347037;19;20033;-69
2022/07/10 18:06:32;;;;;;;0.10;0.10;;;;;;;;;;15351481;19;20123;-69
2022/07/10 18:11:33;;;;;;;0.10;0.10;;;;;;;;;;15344325;19;20010;-68
2022/07/10 18:16:35;;;;;;;0.10;0.10;;;;;;;;;;15352435;19;20100;-69
2022/07/10 18:21:38;;;;;;;0.10;0.10;;;;;;;;;;15348521;19;20271;-70
2022/07/10 18:26:39;;;;;;;0.10;0.10;;;;;;;;;;15351680;19;20011;-68
2022/07/10 18:31:40;;;;;;;0.10;0.10;;;;;;;;;;15349360;19;20021;-70
2022/07/10 18:36:42;;;;;;;0.10;0.10;;;;;;;;;;15345731;19;20011;-69
2022/07/10 18:41:44;;;;;;;0.10;0.10;;;;;;;;;;15352303;19;20005;-68
2022/07/10 18:46:46;;;;;;;0.10;0.10;;;;;;;;;;15345131;19;20017;-68
2022/07/10 18:51:47;;;;;;;0.10;0.10;;;;;;;;;;15350832;19;20007;-66
2022/07/10 18:56:48;;;;;;;0.10;0.10;;;;;;;;;;15347917;19;20042;-69
2022/07/10 19:01:50;;;;;;;0.20;0.20;;;;;;;;;;15344313;19;20007;-68
2022/07/10 19:06:51;;;;;;;0.10;0.10;;;;;;;;;;15348995;19;20024;-67
2022/07/10 19:11:56;;;;;;;;;;;;;;;;;;15344688;19;20022;-68
2022/07/10 19:16:58;;;;;;;0.20;0.20;;;;;;;;;;15349259;19;20122;-66
2022/07/10 19:22:01;;;;;;;0.20;0.20;;;;;;;;;;15342205;19;20019;-67
2022/07/10 19:27:04;;;;;;;0.20;0.20;;;;;;;;;;15343498;19;20006;-68
2022/07/10 19:32:06;;;;;;;0.20;0.20;;;;;;;;;;15343119;19;20147;-67
2022/07/10 19:37:08;;;;;;;0.20;0.20;;;;;;;;;;15342851;19;20191;-66
2022/07/10 19:42:09;;;;;;;0.20;0.20;;;;;;;;;;15344923;19;20023;-67
2022/07/10 19:47:11;;;;;;;0.20;0.20;;;;;;;;;;15341164;19;20211;-67
2022/07/10 19:52:12;;;;;;;0.20;0.20;;;;;;;;;;15337528;19;20515;-70
2022/07/10 19:57:13;;;;;;;0.20;0.20;;;;;;;;;;15340933;19;19999;-67
2022/07/10 20:02:14;;;;;;;0.20;0.20;;;;;;;;;;15329668;19;20021;-64
2022/07/10 20:07:16;;;;;;;0.20;0.20;;;;;;;;;;15337550;19;20021;-67
2022/07/10 20:12:17;;;;;;;0.20;0.20;;;;;;;;;;15343092;19;20014;-68
2022/07/10 20:17:19;;;;;;;0.20;0.20;;;;;;;;;;15354202;19;20014;-65
2022/07/10 20:22:22;;;;;;;0.20;0.20;;;;;;;;;;15359666;19;20238;-65
2022/07/10 20:27:24;;;;;;;0.20;0.20;;;;;;;;;;15358292;19;20015;-66
2022/07/10 20:32:25;;;;;;;0.20;0.20;;;;;;;;;;15350838;19;20041;-64
2022/07/10 20:37:39;;;;;;;0.20;0.20;;;;;;;;;;15354372;19;20014;-65
2022/07/10 20:42:41;;;;;;;0.20;0.20;;;;;;;;;;15357236;19;20015;-66
2022/07/10 20:47:46;;;;;;;0.20;0.20;;;;;;;;;;15352409;19;20015;-67
2022/07/10 20:52:47;;;;;;;0.20;0.20;;;;;;;;;;15347609;19;20003;-67
2022/07/10 20:57:48;;;;;;;0.20;0.20;;;;;;;;;;15346547;19;20087;-65
2022/07/10 21:02:49;;;;;;;0.20;0.20;;;;;;;;;;15347529;19;20010;-66
2022/07/10 21:07:51;;;;;;;0.20;0.20;;;;;;;;;;15345226;19;19998;-65
2022/07/10 21:12:52;;;;;;;0.20;0.20;;;;;;;;;;15358061;19;20130;-67
2022/07/10 21:17:53;;;;;;;0.20;0.20;;;;;;;;;;15352510;19;20022;-66
2022/07/10 21:22:54;;;;;;;0.20;0.20;;;;;;;;;;15347819;19;20015;-68
2022/07/10 21:27:56;;;;;;;0.20;0.20;;;;;;;;;;15349638;19;20209;-65
2022/07/10 21:32:58;;;;;;;0.20;0.20;;;;;;;;;;15346137;19;20026;-66
2022/07/10 21:37:59;;;;;;;0.10;0.10;;;;;;;;;;15343038;19;20003;-66
2022/07/10 21:43:00;;;;;;;0.20;0.20;;;;;;;;;;15347988;19;20219;-68
2022/07/10 21:48:02;;;;;;;0.20;0.20;;;;;;;;;;15344468;19;20007;-66
2022/07/10 21:53:03;;;;;;;0.20;0.20;;;;;;;;;;15343077;19;20014;-66
2022/07/10 21:58:04;;;;;;;0.20;0.20;;;;;;;;;;15340976;19;20013;-65
2022/07/10 22:03:06;;;;;;;0.15;0.15;;;;;;;;;;15351726;19;20011;-67
2022/07/10 22:08:07;;;;;;;0.20;0.20;;;;;;;;;;15342438;19;20130;-66
2022/07/10 22:13:08;;;;;;;0.20;0.20;;;;;;;;;;15341992;19;20159;-67
2022/07/10 22:18:10;;;;;;;0.20;0.20;;;;;;;;;;15347830;19;20010;-67
2022/07/10 22:23:11;;;;;;;0.20;0.20;;;;;;;;;;15344086;19;20013;-66
2022/07/10 22:28:12;;;;;;;0.20;0.20;;;;;;;;;;15340069;19;20007;-66
2022/07/10 22:33:17;;;;;;;0.20;0.20;;;;;;;;;;15333207;19;20238;-67
2022/07/10 22:38:18;;;;;;;0.20;0.20;;;;;;;;;;15344642;19;20018;-66
2022/07/10 22:43:20;;;;;;;0.20;0.20;;;;;;;;;;15340829;19;20014;-67
2022/07/10 22:48:21;;;;;;;0.20;0.20;;;;;;;;;;15339132;19;20207;-67
2022/07/10 22:53:22;;;;;;;0.20;0.20;;;;;;;;;;15344435;19;20117;-67
2022/07/10 22:58:24;;;;;;;0.20;0.20;;;;;;;;;;15346177;19;20018;-67
2022/07/10 23:03:26;;;;;;;0.20;0.20;;;;;;;;;;15346216;19;20013;-66
2022/07/10 23:08:28;;;;;;;0.20;0.20;;;;;;;;;;15336099;19;20010;-66
2022/07/10 23:13:29;;;;;;;0.20;0.20;;;;;;;;;;15341234;19;20013;-65
2022/07/10 23:18:31;;;;;;;0.20;0.20;;;;;;;;;;15334568;19;20003;-65
2022/07/10 23:23:33;;;;;;;0.20;0.20;;;;;;;;;;15343082;19;20138;-65
2022/07/10 23:28:35;;;;;;;0.20;0.20;;;;;;;;;;15338524;19;20014;-65
2022/07/10 23:33:37;;;;;;;0.20;0.20;;;;;;;;;;15331533;19;20022;-65
2022/07/10 23:38:38;;;;;;;0.20;0.20;;;;;;;;;;15333073;19;20006;-66
2022/07/10 23:43:39;;;;;;;0.20;0.20;;;;;;;;;;15333697;19;20010;-66
2022/07/10 23:54:00;;;;;;;0.20;0.20;;;;;;;;;;15357359;19;20037;-66
2022/07/10 23:59:01;;;;;;;0.20;0.20;;;;;;;;;;15354436;19;20011;-66
